Page, Arizona
Current Conditions -  °F | °C
As of 11:53 PM on Thursday 30 Oct 2014 (Local Time) from KPGA Reporting Station
Clear Clear  
Wind Chill: 56°   Ceiling: Unl
Heat Index: 56°   Visibility: 10mi
Dew Point: 22°   Wind: 5mph
Humidity: 27%   Direction: 270°W
Pressure: 30.17"   Gusts: NA
Location:  36.92°N, 111.46°W
Report Text: KPGA 310553Z AUTO 27004KT 10SM CLR 13/M06 A3017 RMK AO2 SLP179 T01331056 10206 20122 50002
Loading
Personal Weather Stations






























Interactive Weather Map
Tropical Storm Tracking
New forecast layout! Learn more

10-Day Weather Forecast

Advertisements
Track Severe Weather on mobile